createdAt,value
2022-08-08T00:00:50.390Z,3.63
2022-08-08T00:03:37.845Z,3.28
2022-08-08T00:06:34.154Z,3.38
2022-08-08T00:09:21.129Z,3.03
2022-08-08T00:12:06.986Z,3.67
2022-08-08T00:15:08.473Z,2.85
2022-08-08T00:17:58.540Z,3.40
2022-08-08T00:20:46.889Z,3.50
2022-08-08T00:23:51.826Z,3.47
2022-08-08T00:26:29.790Z,2.95
2022-08-08T00:29:08.099Z,3.20
2022-08-08T00:32:33.010Z,2.70
2022-08-08T00:35:07.658Z,3.60
2022-08-08T00:38:01.632Z,3.63
2022-08-08T00:41:11.526Z,3.47
2022-08-08T00:43:46.341Z,3.38
2022-08-08T00:46:57.897Z,3.10
2022-08-08T00:50:07.202Z,3.72
2022-08-08T00:52:56.906Z,3.72
2022-08-08T00:56:02.156Z,3.42
2022-08-08T00:59:07.364Z,3.38
2022-08-08T01:02:03.234Z,4.32
2022-08-08T01:07:56.998Z,3.58
2022-08-08T01:10:45.227Z,3.40
2022-08-08T01:13:53.057Z,3.83
2022-08-08T01:16:46.603Z,3.28
2022-08-08T01:20:02.549Z,3.67
2022-08-08T01:22:55.743Z,3.60
2022-08-08T01:25:59.529Z,3.40
2022-08-08T01:29:00.062Z,3.47
2022-08-08T01:32:12.818Z,3.30
2022-08-08T01:34:57.741Z,3.30
2022-08-08T01:37:58.548Z,3.08
2022-08-08T01:40:47.386Z,3.08
2022-08-08T01:43:16.821Z,3.60
2022-08-08T01:45:56.151Z,3.40
2022-08-08T01:48:48.118Z,3.22
2022-08-08T01:51:31.872Z,3.00
2022-08-08T01:55:25.561Z,3.28
2022-08-08T01:58:04.379Z,2.85
2022-08-08T02:00:20.105Z,2.97
2022-08-08T02:02:57.187Z,3.05
2022-08-08T02:05:56.961Z,3.30
2022-08-08T02:09:03.269Z,3.22
2022-08-08T02:11:58.719Z,3.35
2022-08-08T02:14:49.748Z,3.05
2022-08-08T02:17:53.892Z,2.42
2022-08-08T02:21:01.781Z,2.97
2022-08-08T02:23:32.054Z,3.38
2022-08-08T02:26:10.233Z,3.13
2022-08-08T02:28:58.920Z,3.45
2022-08-08T02:31:58.785Z,3.70
2022-08-08T02:35:06.386Z,3.15
2022-08-08T02:37:56.759Z,3.22
2022-08-08T02:40:53.128Z,3.67
2022-08-08T02:44:43.074Z,3.53
2022-08-08T02:46:51.917Z,3.38
2022-08-08T02:49:48.004Z,2.67
2022-08-08T02:52:42.445Z,3.30
2022-08-08T02:55:24.868Z,3.53
2022-08-08T02:58:28.897Z,3.40
2022-08-08T03:01:19.077Z,3.38
2022-08-08T03:05:05.253Z,3.10
2022-08-08T03:07:41.328Z,3.53
2022-08-08T03:10:53.431Z,3.17
2022-08-08T03:16:01.860Z,3.13
2022-08-08T03:16:37.899Z,3.45
2022-08-08T03:19:50.470Z,2.92
2022-08-08T03:22:38.751Z,2.70
2022-08-08T03:25:14.407Z,3.35
2022-08-08T03:27:57.291Z,2.75
2022-08-08T03:30:25.002Z,3.05
2022-08-08T03:33:55.934Z,2.90
2022-08-08T03:35:57.898Z,3.22
2022-08-08T03:38:56.151Z,2.92
2022-08-08T03:42:03.816Z,2.90
2022-08-08T03:43:59.589Z,2.70
2022-08-08T03:46:32.537Z,2.85
2022-08-08T03:49:10.018Z,3.10
2022-08-08T03:51:56.023Z,2.88
2022-08-08T03:54:52.025Z,3.22
2022-08-08T03:58:30.109Z,3.72
2022-08-08T04:00:11.853Z,3.60
2022-08-08T04:02:47.306Z,3.53
2022-08-08T04:05:27.424Z,2.85
2022-08-08T04:07:56.157Z,2.95
2022-08-08T04:10:24.713Z,2.95
2022-08-08T04:12:51.274Z,2.95
2022-08-08T04:15:18.010Z,3.10
2022-08-08T04:17:59.051Z,3.00
2022-08-08T04:20:28.560Z,3.58
2022-08-08T04:22:57.156Z,3.30
2022-08-08T04:25:30.162Z,3.22
2022-08-08T04:28:02.535Z,2.92
2022-08-08T04:30:47.706Z,3.00
2022-08-08T04:33:15.482Z,3.15
2022-08-08T04:35:50.794Z,3.42
2022-08-08T04:38:21.626Z,3.42
2022-08-08T04:40:54.367Z,2.88
2022-08-08T04:43:32.471Z,3.10
2022-08-08T04:46:09.333Z,3.50
2022-08-08T04:48:35.805Z,3.22
2022-08-08T04:51:02.302Z,3.33
2022-08-08T04:54:27.487Z,3.15
2022-08-08T04:56:17.583Z,3.40
2022-08-08T04:58:44.429Z,4.15
2022-08-08T05:01:14.996Z,3.67
2022-08-08T05:04:09.956Z,3.78
2022-08-08T05:06:29.063Z,3.45
2022-08-08T05:08:56.101Z,3.38
2022-08-08T05:11:29.155Z,3.63
2022-08-08T05:14:06.069Z,3.25
2022-08-08T05:16:54.581Z,3.15
2022-08-08T05:20:09.579Z,2.90
2022-08-08T05:22:08.706Z,3.25
2022-08-08T05:24:38.406Z,3.17
2022-08-08T05:27:06.378Z,2.92
2022-08-08T05:29:35.869Z,2.83
2022-08-08T05:32:06.129Z,3.47
2022-08-08T05:34:42.106Z,3.38
2022-08-08T05:37:17.245Z,3.58
2022-08-08T05:39:56.816Z,3.53
2022-08-08T05:42:30.732Z,3.33
2022-08-08T05:45:10.135Z,3.20
2022-08-08T05:48:00.476Z,3.80
2022-08-08T05:50:30.190Z,3.20
2022-08-08T05:53:55.379Z,3.55
2022-08-08T05:56:07.704Z,3.28
2022-08-08T05:58:39.459Z,3.20
2022-08-08T06:01:55.370Z,3.90
2022-08-08T06:04:22.859Z,4.18
2022-08-08T06:06:53.750Z,3.75
2022-08-08T06:10:00.577Z,3.13
2022-08-08T06:12:18.639Z,4.15
2022-08-08T06:14:57.782Z,3.28
2022-08-08T06:17:32.114Z,4.10
2022-08-08T06:20:13.327Z,4.80
2022-08-08T06:22:43.171Z,5.75
2022-08-08T06:25:10.344Z,3.40
2022-08-08T06:27:48.434Z,3.63
2022-08-08T06:30:20.219Z,4.10
2022-08-08T06:33:01.333Z,4.15
2022-08-08T06:36:09.168Z,3.75
2022-08-08T06:38:28.744Z,3.67
2022-08-08T06:41:04.121Z,3.25
2022-08-08T06:43:37.468Z,3.88
2022-08-08T06:46:08.584Z,3.13
2022-08-08T06:48:36.394Z,3.47
2022-08-08T06:51:07.503Z,4.47
2022-08-08T06:53:40.010Z,3.90
2022-08-08T06:56:17.975Z,3.50
2022-08-08T06:58:49.720Z,3.85
2022-08-08T07:02:16.602Z,3.42
2022-08-08T07:04:38.966Z,3.25
2022-08-08T07:07:10.472Z,3.30
2022-08-08T07:09:56.268Z,3.35
2022-08-08T07:12:43.275Z,3.38
2022-08-08T07:15:31.938Z,3.30
2022-08-08T07:18:36.097Z,3.38
2022-08-08T07:20:57.368Z,3.40
2022-08-08T07:23:57.687Z,3.78
2022-08-08T07:26:21.697Z,3.35
2022-08-08T07:28:58.716Z,2.90
2022-08-08T07:31:35.473Z,2.72
2022-08-08T07:34:03.905Z,3.55
2022-08-08T07:36:37.141Z,3.53
2022-08-08T07:39:03.957Z,3.67
2022-08-08T07:42:04.319Z,3.38
2022-08-08T07:44:40.560Z,3.80
2022-08-08T07:47:06.031Z,2.97
2022-08-08T07:49:32.810Z,3.38
2022-08-08T07:52:02.419Z,3.47
2022-08-08T07:54:37.436Z,3.92
2022-08-08T07:57:17.050Z,3.20
2022-08-08T08:00:16.086Z,3.33
2022-08-08T08:02:47.264Z,2.97
2022-08-08T08:05:33.322Z,3.03
2022-08-08T08:08:06.456Z,3.63
2022-08-08T08:10:36.182Z,2.92
2022-08-08T08:13:43.137Z,3.17
2022-08-08T08:16:32.431Z,2.88
2022-08-08T08:19:05.542Z,3.05
2022-08-08T08:21:57.328Z,2.65
2022-08-08T08:24:30.950Z,3.38
2022-08-08T08:27:00.051Z,2.95
2022-08-08T08:29:29.721Z,2.80
2022-08-08T08:31:58.204Z,2.78
2022-08-08T08:34:32.307Z,2.72
2022-08-08T08:37:00.592Z,2.63
2022-08-08T08:39:59.690Z,2.80
2022-08-08T08:42:28.911Z,2.70
2022-08-08T08:45:10.118Z,2.75
2022-08-08T08:47:53.436Z,2.40
2022-08-08T08:50:34.004Z,2.28
2022-08-08T08:53:55.572Z,2.30
2022-08-08T08:56:02.178Z,2.30
2022-08-08T08:58:39.748Z,2.15
2022-08-08T09:01:13.478Z,2.33
2022-08-08T09:03:45.886Z,2.45
2022-08-08T09:06:26.139Z,2.15
2022-08-08T09:09:35.095Z,2.20
2022-08-08T09:12:09.628Z,2.50
2022-08-08T09:14:42.670Z,1.90
2022-08-08T09:17:18.316Z,1.92
2022-08-08T09:22:02.794Z,2.10
2022-08-08T09:22:35.218Z,2.20
2022-08-08T09:25:04.357Z,2.47
2022-08-08T09:27:56.117Z,1.83
2022-08-08T09:30:20.234Z,2.30
2022-08-08T09:35:49.572Z,2.10
2022-08-08T09:38:32.009Z,2.40
2022-08-08T09:41:05.385Z,2.22
2022-08-08T09:44:05.554Z,2.53
2022-08-08T09:46:30.565Z,2.47
2022-08-08T09:49:04.573Z,2.22
2022-08-08T09:52:06.846Z,1.90
2022-08-08T09:54:44.166Z,1.90
2022-08-08T09:57:12.653Z,2.10
2022-08-08T10:00:01.175Z,2.00
2022-08-08T10:02:36.688Z,1.88
2022-08-08T10:05:14.663Z,2.03
2022-08-08T10:08:01.088Z,2.03
2022-08-08T10:10:33.930Z,2.50
2022-08-08T10:13:29.940Z,2.40
2022-08-08T10:16:01.951Z,2.55
2022-08-08T10:18:35.954Z,1.90
2022-08-08T10:21:08.359Z,2.30
2022-08-08T10:23:58.545Z,1.80
2022-08-08T10:26:56.633Z,2.03
2022-08-08T10:29:57.149Z,1.83
2022-08-08T10:32:38.303Z,1.83
2022-08-08T10:36:07.385Z,2.05
2022-08-08T10:38:03.964Z,2.45
2022-08-08T10:40:32.718Z,2.15
2022-08-08T10:43:03.459Z,1.95
2022-08-08T10:45:42.720Z,1.83
2022-08-08T10:48:55.793Z,2.05
2022-08-08T10:51:23.988Z,2.00
2022-08-08T10:53:57.118Z,2.20
2022-08-08T10:56:27.641Z,1.85
2022-08-08T10:59:09.541Z,2.22
2022-08-08T11:01:39.344Z,2.28
2022-08-08T11:04:10.919Z,1.98
2022-08-08T11:06:42.030Z,2.22
2022-08-08T11:09:21.237Z,2.20
2022-08-08T11:12:04.599Z,2.03
2022-08-08T11:14:48.620Z,2.30
2022-08-08T11:17:15.950Z,2.28
2022-08-08T11:19:46.622Z,3.05
2022-08-08T11:22:24.683Z,2.60
2022-08-08T11:25:14.378Z,2.08
2022-08-08T11:27:46.965Z,2.20
2022-08-08T11:30:24.656Z,2.15
2022-08-08T11:32:56.812Z,2.10
2022-08-08T11:35:37.814Z,2.15
2022-08-08T11:38:39.076Z,1.90
2022-08-08T11:40:56.177Z,2.40
2022-08-08T11:43:39.180Z,2.20
2022-08-08T11:46:14.183Z,1.95
2022-08-08T11:48:47.383Z,3.05
2022-08-08T11:51:37.350Z,2.28
2022-08-08T11:54:27.308Z,1.83
2022-08-08T11:56:56.094Z,1.88
2022-08-08T11:59:58.654Z,2.30
2022-08-08T12:02:31.641Z,2.10
2022-08-08T12:05:13.591Z,1.63
2022-08-08T12:07:52.095Z,2.47
2022-08-08T12:10:23.682Z,2.50
2022-08-08T12:13:00.102Z,2.15
2022-08-08T12:15:40.003Z,2.28
2022-08-08T12:18:18.168Z,2.33
2022-08-08T12:20:53.212Z,2.25
2022-08-08T12:23:40.059Z,2.15
2022-08-08T12:26:17.162Z,2.00
2022-08-08T12:28:58.645Z,2.58
2022-08-08T12:31:39.163Z,2.47
2022-08-08T12:34:36.399Z,2.40
2022-08-08T12:37:08.799Z,2.25
2022-08-08T12:40:00.286Z,2.35
2022-08-08T12:42:26.477Z,1.95
2022-08-08T12:45:54.627Z,2.42
2022-08-08T12:48:10.003Z,2.50
2022-08-08T12:50:48.058Z,2.30
2022-08-08T12:53:30.143Z,2.35
2022-08-08T12:56:19.234Z,2.33
2022-08-08T12:58:54.225Z,2.20
2022-08-08T13:01:36.841Z,3.53
2022-08-08T13:04:19.312Z,2.53
2022-08-08T13:06:54.615Z,2.28
2022-08-08T13:10:03.977Z,2.05
2022-08-08T13:12:35.935Z,2.28
2022-08-08T13:15:13.689Z,2.40
2022-08-08T13:18:08.594Z,2.30
2022-08-08T13:20:27.867Z,2.42
2022-08-08T13:23:29.968Z,2.30
2022-08-08T13:25:43.525Z,2.55
2022-08-08T13:28:10.016Z,2.20
2022-08-08T13:30:36.539Z,2.47
2022-08-08T13:33:04.185Z,2.33
2022-08-08T13:35:40.500Z,2.40
2022-08-08T13:38:13.326Z,2.60
2022-08-08T13:40:44.867Z,2.33
2022-08-08T13:43:12.837Z,2.00
2022-08-08T13:45:40.833Z,2.10
2022-08-08T13:48:14.859Z,2.10
2022-08-08T13:50:55.302Z,2.05
2022-08-08T13:53:33.823Z,2.30
2022-08-08T13:56:05.725Z,2.42
2022-08-08T13:58:33.109Z,2.20
2022-08-08T14:01:15.488Z,2.75
2022-08-08T14:03:54.516Z,2.33
2022-08-08T14:06:34.012Z,2.03
2022-08-08T14:09:25.404Z,1.88
2022-08-08T14:11:49.976Z,2.10
2022-08-08T14:14:21.173Z,2.03
2022-08-08T14:16:53.879Z,2.30
2022-08-08T14:19:57.609Z,2.20
2022-08-08T14:22:20.995Z,1.95
2022-08-08T14:24:58.882Z,2.40
2022-08-08T14:27:33.398Z,1.98
2022-08-08T14:30:18.987Z,1.88
2022-08-08T14:32:53.428Z,1.92
2022-08-08T14:35:28.393Z,2.22
2022-08-08T14:38:09.381Z,2.00
2022-08-08T14:40:52.820Z,2.03
2022-08-08T14:44:02.602Z,1.75
2022-08-08T14:46:15.338Z,2.00
2022-08-08T14:48:56.882Z,2.38
2022-08-08T14:51:47.163Z,2.45
2022-08-08T14:54:13.447Z,3.15
2022-08-08T14:56:42.827Z,1.90
2022-08-08T14:59:22.653Z,2.00
2022-08-08T15:02:00.600Z,1.98
2022-08-08T15:04:27.176Z,2.15
2022-08-08T15:06:55.525Z,2.10
2022-08-08T15:09:23.177Z,2.00
2022-08-08T15:11:53.148Z,2.30
2022-08-08T15:14:24.961Z,1.90
2022-08-08T15:16:51.824Z,2.10
2022-08-08T15:19:18.332Z,2.35
2022-08-08T15:21:46.621Z,1.90
2022-08-08T15:24:15.921Z,1.88
2022-08-08T15:26:52.209Z,1.98
2022-08-08T15:29:22.714Z,2.08
2022-08-08T15:34:38.694Z,2.90
2022-08-08T15:37:05.804Z,2.30
2022-08-08T15:39:39.072Z,2.30
2022-08-08T15:42:10.259Z,1.80
2022-08-08T15:44:37.638Z,1.88
2022-08-08T15:47:07.154Z,2.13
2022-08-08T15:49:44.389Z,2.53
2022-08-08T15:52:14.918Z,2.38
2022-08-08T15:54:42.841Z,2.03
2022-08-08T15:57:15.372Z,2.30
2022-08-08T16:00:05.284Z,2.45
2022-08-08T16:02:31.548Z,2.28
2022-08-08T16:04:59.985Z,2.20
2022-08-08T16:07:50.893Z,2.30
2022-08-08T16:13:10.727Z,2.00
2022-08-08T16:13:27.980Z,1.95
2022-08-08T16:15:58.637Z,1.92
2022-08-08T16:18:35.773Z,2.35
2022-08-08T16:21:02.898Z,2.90
2022-08-08T16:23:32.317Z,2.30
2022-08-08T16:26:12.846Z,1.90
2022-08-08T16:28:44.349Z,2.33
2022-08-08T16:31:12.332Z,2.13
2022-08-08T16:33:40.163Z,2.35
2022-08-08T16:36:09.872Z,1.83
2022-08-08T16:38:44.679Z,2.08
2022-08-08T16:41:18.362Z,2.35
2022-08-08T16:43:51.115Z,2.05
2022-08-08T16:46:43.608Z,2.10
2022-08-08T16:49:07.996Z,2.28
2022-08-08T16:55:00.272Z,2.15
2022-08-08T16:55:02.592Z,1.95
2022-08-08T16:58:11.856Z,2.17
2022-08-08T17:00:00.830Z,2.13
2022-08-08T17:02:37.884Z,2.33
2022-08-08T17:05:06.346Z,2.53
2022-08-08T17:07:34.092Z,2.08
2022-08-08T17:10:04.973Z,2.22
2022-08-08T17:12:33.961Z,2.58
2022-08-08T17:15:17.611Z,2.33
2022-08-08T17:18:02.249Z,2.72
2022-08-08T17:20:39.445Z,2.55
2022-08-08T17:23:25.647Z,2.17
2022-08-08T17:25:54.251Z,2.35
2022-08-08T17:28:31.502Z,2.20
2022-08-08T17:31:43.428Z,2.20
2022-08-08T17:34:49.035Z,2.70
2022-08-08T17:36:38.237Z,2.13
2022-08-08T17:40:03.952Z,2.60
2022-08-08T17:42:12.202Z,2.35
2022-08-08T17:44:39.847Z,2.25
2022-08-08T17:47:10.949Z,2.42
2022-08-08T17:49:43.724Z,2.30
2022-08-08T17:52:10.308Z,2.95
2022-08-08T17:54:37.521Z,2.28
2022-08-08T17:57:05.700Z,2.35
2022-08-08T17:59:36.223Z,2.28
2022-08-08T18:02:18.942Z,3.15
2022-08-08T18:04:54.882Z,2.25
2022-08-08T18:08:02.979Z,2.17
2022-08-08T18:10:08.156Z,2.42
2022-08-08T18:12:35.270Z,2.58
2022-08-08T18:15:03.651Z,2.70
2022-08-08T18:18:09.445Z,2.65
2022-08-08T18:20:43.703Z,2.30
2022-08-08T18:23:07.034Z,2.72
2022-08-08T18:25:41.204Z,3.03
2022-08-08T18:28:07.817Z,2.58
2022-08-08T18:30:41.049Z,2.75
2022-08-08T18:33:10.422Z,2.63
2022-08-08T18:35:41.784Z,3.00
2022-08-08T18:38:16.991Z,2.60
2022-08-08T18:40:46.131Z,2.60
2022-08-08T18:43:16.458Z,2.80
2022-08-08T18:46:00.556Z,2.85
2022-08-08T18:48:31.049Z,3.03
2022-08-08T18:50:58.588Z,3.05
2022-08-08T18:54:00.128Z,2.70
2022-08-08T18:56:26.583Z,3.38
2022-08-08T18:58:53.738Z,3.25
2022-08-08T19:02:26.166Z,3.05
2022-08-08T19:04:10.895Z,3.05
2022-08-08T19:06:39.514Z,3.13
2022-08-08T19:09:13.587Z,2.67
2022-08-08T19:11:46.309Z,3.25
2022-08-08T19:14:20.809Z,2.90
2022-08-08T19:16:48.086Z,2.88
2022-08-08T19:19:15.049Z,3.17
2022-08-08T19:21:49.490Z,3.13
2022-08-08T19:24:39.358Z,3.30
2022-08-08T19:27:05.753Z,2.70
2022-08-08T19:29:40.554Z,3.10
2022-08-08T19:32:12.766Z,2.78
2022-08-08T19:34:41.377Z,3.20
2022-08-08T19:37:16.307Z,3.05
2022-08-08T19:39:45.791Z,3.10
2022-08-08T19:42:17.558Z,2.78
2022-08-08T19:44:46.193Z,2.85
2022-08-08T19:47:24.525Z,2.72
2022-08-08T19:49:59.954Z,3.00
2022-08-08T19:52:34.732Z,2.88
2022-08-08T19:55:12.662Z,3.58
2022-08-08T19:57:42.591Z,3.28
2022-08-08T20:00:29.257Z,3.28
2022-08-08T20:02:56.994Z,3.30
2022-08-08T20:06:13.762Z,3.10
2022-08-08T20:08:27.984Z,3.70
2022-08-08T20:10:57.142Z,3.42
2022-08-08T20:14:33.055Z,3.15
2022-08-08T20:16:10.629Z,3.20
2022-08-08T20:18:52.751Z,3.45
2022-08-08T20:21:23.053Z,3.22
2022-08-08T20:23:52.645Z,3.90
2022-08-08T20:26:33.417Z,3.83
2022-08-08T20:29:02.261Z,3.80
2022-08-08T20:32:02.641Z,3.53
2022-08-08T20:34:28.918Z,3.53
2022-08-08T20:36:58.762Z,3.33
2022-08-08T20:39:26.916Z,3.25
2022-08-08T20:42:00.703Z,3.58
2022-08-08T20:44:27.352Z,3.63
2022-08-08T20:46:53.916Z,3.95
2022-08-08T20:49:21.878Z,3.70
2022-08-08T20:51:48.696Z,3.22
2022-08-08T20:54:25.974Z,2.88
2022-08-08T20:57:05.814Z,3.75
2022-08-08T20:59:41.805Z,3.35
2022-08-08T21:02:12.523Z,3.05
2022-08-08T21:04:40.520Z,3.63
2022-08-08T21:07:15.863Z,3.72
2022-08-08T21:09:48.747Z,3.45
2022-08-08T21:12:33.085Z,3.50
2022-08-08T21:15:07.102Z,3.55
2022-08-08T21:17:37.087Z,3.30
2022-08-08T21:20:04.613Z,4.20
2022-08-08T21:22:31.190Z,3.72
2022-08-08T21:24:58.358Z,3.40
2022-08-08T21:28:05.452Z,3.55
2022-08-08T21:30:18.878Z,3.45
2022-08-08T21:32:52.111Z,4.32
2022-08-08T21:36:17.071Z,3.53
2022-08-08T21:38:16.279Z,3.60
2022-08-08T21:40:55.964Z,3.38
2022-08-08T21:43:25.287Z,4.53
2022-08-08T21:48:06.760Z,3.90
2022-08-08T21:48:41.696Z,3.40
2022-08-08T21:51:11.333Z,3.78
2022-08-08T21:54:23.063Z,4.10
2022-08-08T21:56:33.865Z,3.88
2022-08-08T21:59:05.783Z,3.78
2022-08-08T22:01:39.150Z,3.53
2022-08-08T22:04:10.434Z,4.00
2022-08-08T22:06:39.728Z,3.88
2022-08-08T22:09:09.775Z,4.22
2022-08-08T22:11:59.549Z,3.50
2022-08-08T22:14:26.733Z,2.80
2022-08-08T22:19:23.927Z,3.25
2022-08-08T22:21:51.501Z,3.40
2022-08-08T22:24:18.056Z,3.45
2022-08-08T22:27:02.183Z,2.72
2022-08-08T22:30:01.649Z,3.17
2022-08-08T22:32:18.976Z,3.53
2022-08-08T22:34:50.499Z,3.45
2022-08-08T22:37:49.041Z,3.28
2022-08-08T22:40:07.478Z,3.58
2022-08-08T22:42:40.351Z,3.10
2022-08-08T22:45:13.014Z,3.50
2022-08-08T22:47:46.973Z,3.10
2022-08-08T22:50:26.178Z,3.40
2022-08-08T22:54:28.387Z,3.00
2022-08-08T22:55:58.454Z,3.20
2022-08-08T22:58:33.817Z,3.13
2022-08-08T23:01:16.700Z,3.65
2022-08-08T23:03:54.971Z,3.25
2022-08-08T23:06:22.567Z,2.80
2022-08-08T23:08:55.652Z,2.65
2022-08-08T23:11:30.997Z,2.90
2022-08-08T23:14:15.879Z,3.13
2022-08-08T23:16:45.210Z,3.45
2022-08-08T23:19:15.266Z,2.88
2022-08-08T23:21:42.415Z,2.88
2022-08-08T23:24:09.367Z,2.78
2022-08-08T23:26:35.914Z,3.83
2022-08-08T23:29:04.482Z,2.83
2022-08-08T23:31:38.872Z,3.20
2022-08-08T23:34:16.726Z,3.10
2022-08-08T23:36:45.936Z,3.38
2022-08-08T23:39:12.854Z,3.28
2022-08-08T23:41:45.631Z,3.47
2022-08-08T23:44:14.008Z,3.47
2022-08-08T23:49:02.737Z,3.50
2022-08-08T23:49:26.962Z,3.30
2022-08-08T23:52:05.410Z,2.63
2022-08-08T23:54:42.970Z,3.35
2022-08-08T23:57:38.790Z,3.38
